Airfield :
LOGIN :

Register | Disclaimer

   EN    FR    IT 

 










Legend :    VFR   Marginal VFR   IFR   Intensive IFR   Very Intensive IFR
Visi :
Ceiling :
>= 8 km
>= 3000ft
5 to 8 km
1000 to 3000 ft
1500m to 5 km
500 to 1000 ft
800 to 1500m
200 to 500 ft
< 800m
< 200 ft
Symbols :   Thunderstorms  Fog  Heavy snow  Heavy precipitations  Wind > 20 kt
SIGMETs :     Misc.  Thunderstorms  Icing  Turbulence  Mountain Waves  Volcanic Ashes







- Airport Elevation : 247 ft
- IATA code : BLL


EKBI - Billund

CURRENT METAR :
  • 262320Z 24003KT 9999 BCFG SKC 00/M01 Q1012

EXPIRED METARs :
  • 262250Z 26004KT 9999 BCFG SKC 00/M01 Q1012
  • 262220Z 27004KT 9999 BCFG SKC 01/M01 Q1012
  • 262150Z AUTO 27002KT 9999NDV NCD 00/M02 Q1012
  • 262120Z AUTO 25003KT 9999NDV NCD 01/M01 Q1012
  • 262050Z AUTO 27004KT 9999NDV NCD 02/M01 Q1012
  • 262020Z AUTO 27004KT 9999NDV NCD 02/M01 Q1012

TAF TAF EKBI
Valid from the 26 at 18:00 until the 27 at 18:00 UTC


261705Z 2618/2718 27006KT 9999 SCT030
PROB40 2700/2706 2000 BCFG MIFG
BECMG 2708/2711 22015KT
TEMPO 2709/2718 SHRA BKN020CB
No reported NOTAMs for that airfield.



MET'MAP, your aeronautical weather chart ! - Copyright ORBIFLY December 2007 - Disclaimer

ORBIFLY MET'MAP TEAM :

Programming & Development : Alexandra Zaïnal
Concept & Development : Baudouin d'Aumeries
Co-Development & Prog : Marc-Olivier Méhu
Technical & hardware support : Manuel Goepfert

Contact : metmap@orbifly.com




SOURCES & CREDITS :

   NOAA